sensor_id;sensor_type;location;lat;lon;timestamp;P1;durP1;ratioP1;P2;durP2;ratioP2
7263;SDS011;3673;52.480;13.348;2022-09-17T00:01:38;11.23;;;2.28;;
7263;SDS011;3673;52.480;13.348;2022-09-17T00:04:20;8.27;;;3.53;;
7263;SDS011;3673;52.480;13.348;2022-09-17T00:06:48;8.75;;;1.42;;
7263;SDS011;3673;52.480;13.348;2022-09-17T00:09:14;9.68;;;1.63;;
7263;SDS011;3673;52.480;13.348;2022-09-17T00:11:41;5.28;;;1.27;;
7263;SDS011;3673;52.480;13.348;2022-09-17T00:14:12;5.47;;;1.33;;
7263;SDS011;3673;52.480;13.348;2022-09-17T00:16:42;7.07;;;1.80;;
7263;SDS011;3673;52.480;13.348;2022-09-17T00:19:12;3.80;;;1.42;;
7263;SDS011;3673;52.480;13.348;2022-09-17T00:21:42;8.05;;;2.10;;
7263;SDS011;3673;52.480;13.348;2022-09-17T00:24:11;5.55;;;1.20;;
7263;SDS011;3673;52.480;13.348;2022-09-17T00:26:39;6.85;;;2.13;;
7263;SDS011;3673;52.480;13.348;2022-09-17T00:29:06;5.72;;;1.83;;
7263;SDS011;3673;52.480;13.348;2022-09-17T00:31:33;5.75;;;1.50;;
7263;SDS011;3673;52.480;13.348;2022-09-17T00:34:01;8.35;;;1.80;;
7263;SDS011;3673;52.480;13.348;2022-09-17T00:36:29;4.90;;;1.70;;
7263;SDS011;3673;52.480;13.348;2022-09-17T00:38:59;4.00;;;1.42;;
7263;SDS011;3673;52.480;13.348;2022-09-17T00:41:28;6.53;;;2.70;;
7263;SDS011;3673;52.480;13.348;2022-09-17T00:43:58;7.85;;;1.70;;
7263;SDS011;3673;52.480;13.348;2022-09-17T00:46:28;7.35;;;2.28;;
7263;SDS011;3673;52.480;13.348;2022-09-17T00:49:01;6.82;;;1.88;;
7263;SDS011;3673;52.480;13.348;2022-09-17T00:51:32;4.35;;;1.35;;
7263;SDS011;3673;52.480;13.348;2022-09-17T00:54:03;5.63;;;1.90;;
7263;SDS011;3673;52.480;13.348;2022-09-17T00:56:36;5.75;;;1.90;;
7263;SDS011;3673;52.480;13.348;2022-09-17T00:59:07;6.88;;;1.70;;
7263;SDS011;3673;52.480;13.348;2022-09-17T01:01:35;5.25;;;1.88;;
7263;SDS011;3673;52.480;13.348;2022-09-17T01:04:02;5.25;;;1.60;;
7263;SDS011;3673;52.480;13.348;2022-09-17T01:06:31;5.82;;;1.60;;
7263;SDS011;3673;52.480;13.348;2022-09-17T01:09:11;5.88;;;2.08;;
7263;SDS011;3673;52.480;13.348;2022-09-17T01:11:55;6.90;;;1.80;;
7263;SDS011;3673;52.480;13.348;2022-09-17T01:14:49;6.93;;;1.92;;
7263;SDS011;3673;52.480;13.348;2022-09-17T01:17:31;5.05;;;1.48;;
7263;SDS011;3673;52.480;13.348;2022-09-17T01:23:25;7.03;;;2.03;;
7263;SDS011;3673;52.480;13.348;2022-09-17T01:26:20;8.50;;;2.13;;
7263;SDS011;3673;52.480;13.348;2022-09-17T01:29:17;4.10;;;1.67;;
7263;SDS011;3673;52.480;13.348;2022-09-17T01:32:04;9.98;;;2.50;;
7263;SDS011;3673;52.480;13.348;2022-09-17T01:34:38;7.30;;;1.60;;
7263;SDS011;3673;52.480;13.348;2022-09-17T01:37:25;7.72;;;2.92;;
7263;SDS011;3673;52.480;13.348;2022-09-17T01:39:59;4.80;;;2.03;;
7263;SDS011;3673;52.480;13.348;2022-09-17T01:42:33;3.97;;;1.88;;
7263;SDS011;3673;52.480;13.348;2022-09-17T01:45:08;10.07;;;1.95;;
7263;SDS011;3673;52.480;13.348;2022-09-17T01:47:43;13.88;;;3.38;;
7263;SDS011;3673;52.480;13.348;2022-09-17T01:50:17;6.80;;;2.10;;
7263;SDS011;3673;52.480;13.348;2022-09-17T01:52:49;10.93;;;3.28;;
7263;SDS011;3673;52.480;13.348;2022-09-17T01:55:18;6.07;;;1.88;;
7263;SDS011;3673;52.480;13.348;2022-09-17T01:57:50;7.13;;;1.83;;
7263;SDS011;3673;52.480;13.348;2022-09-17T02:00:21;6.88;;;1.60;;
7263;SDS011;3673;52.480;13.348;2022-09-17T02:02:51;7.00;;;1.85;;
7263;SDS011;3673;52.480;13.348;2022-09-17T02:05:23;6.00;;;1.75;;
7263;SDS011;3673;52.480;13.348;2022-09-17T02:07:57;7.90;;;2.05;;
7263;SDS011;3673;52.480;13.348;2022-09-17T02:10:32;4.77;;;2.07;;
7263;SDS011;3673;52.480;13.348;2022-09-17T02:13:05;7.93;;;1.90;;
7263;SDS011;3673;52.480;13.348;2022-09-17T02:15:39;5.85;;;2.80;;
7263;SDS011;3673;52.480;13.348;2022-09-17T02:18:14;8.77;;;2.28;;
7263;SDS011;3673;52.480;13.348;2022-09-17T02:20:51;6.78;;;1.60;;
7263;SDS011;3673;52.480;13.348;2022-09-17T02:23:41;11.68;;;2.50;;
7263;SDS011;3673;52.480;13.348;2022-09-17T02:26:16;9.20;;;2.20;;
7263;SDS011;3673;52.480;13.348;2022-09-17T02:28:46;4.85;;;1.88;;
7263;SDS011;3673;52.480;13.348;2022-09-17T02:31:16;7.35;;;2.80;;
7263;SDS011;3673;52.480;13.348;2022-09-17T02:33:46;4.45;;;2.03;;
7263;SDS011;3673;52.480;13.348;2022-09-17T02:36:16;12.02;;;3.50;;
7263;SDS011;3673;52.480;13.348;2022-09-17T02:38:44;6.60;;;1.90;;
7263;SDS011;3673;52.480;13.348;2022-09-17T02:41:13;6.18;;;2.20;;
7263;SDS011;3673;52.480;13.348;2022-09-17T02:43:50;9.65;;;2.53;;
7263;SDS011;3673;52.480;13.348;2022-09-17T02:46:39;7.18;;;2.13;;
7263;SDS011;3673;52.480;13.348;2022-09-17T02:49:26;6.95;;;2.28;;
7263;SDS011;3673;52.480;13.348;2022-09-17T02:52:10;8.97;;;3.10;;
7263;SDS011;3673;52.480;13.348;2022-09-17T02:54:45;9.82;;;2.25;;
7263;SDS011;3673;52.480;13.348;2022-09-17T02:57:23;12.82;;;3.47;;
7263;SDS011;3673;52.480;13.348;2022-09-17T02:59:56;10.90;;;3.70;;
7263;SDS011;3673;52.480;13.348;2022-09-17T03:02:34;9.48;;;2.30;;
7263;SDS011;3673;52.480;13.348;2022-09-17T03:05:07;6.55;;;2.17;;
7263;SDS011;3673;52.480;13.348;2022-09-17T03:07:37;10.50;;;2.30;;
7263;SDS011;3673;52.480;13.348;2022-09-17T03:10:05;4.85;;;1.80;;
7263;SDS011;3673;52.480;13.348;2022-09-17T03:12:32;9.57;;;2.30;;
7263;SDS011;3673;52.480;13.348;2022-09-17T03:15:01;7.13;;;2.22;;
7263;SDS011;3673;52.480;13.348;2022-09-17T03:17:28;10.57;;;1.92;;
7263;SDS011;3673;52.480;13.348;2022-09-17T03:19:55;7.15;;;1.90;;
7263;SDS011;3673;52.480;13.348;2022-09-17T03:22:23;9.38;;;2.03;;
7263;SDS011;3673;52.480;13.348;2022-09-17T03:24:50;6.28;;;1.77;;
7263;SDS011;3673;52.480;13.348;2022-09-17T03:27:17;8.63;;;2.05;;
7263;SDS011;3673;52.480;13.348;2022-09-17T03:29:44;8.43;;;2.60;;
7263;SDS011;3673;52.480;13.348;2022-09-17T03:32:11;17.15;;;2.35;;
7263;SDS011;3673;52.480;13.348;2022-09-17T03:34:38;11.70;;;2.05;;
7263;SDS011;3673;52.480;13.348;2022-09-17T03:37:04;6.65;;;1.80;;
7263;SDS011;3673;52.480;13.348;2022-09-17T03:39:33;9.73;;;1.60;;
7263;SDS011;3673;52.480;13.348;2022-09-17T03:42:00;8.57;;;2.05;;
7263;SDS011;3673;52.480;13.348;2022-09-17T03:44:27;11.35;;;2.60;;
7263;SDS011;3673;52.480;13.348;2022-09-17T03:46:53;4.28;;;1.73;;
7263;SDS011;3673;52.480;13.348;2022-09-17T03:49:21;7.22;;;2.03;;
7263;SDS011;3673;52.480;13.348;2022-09-17T03:51:49;8.68;;;2.47;;
7263;SDS011;3673;52.480;13.348;2022-09-17T03:54:16;9.23;;;2.58;;
7263;SDS011;3673;52.480;13.348;2022-09-17T03:56:44;9.45;;;2.08;;
7263;SDS011;3673;52.480;13.348;2022-09-17T03:59:11;5.25;;;2.30;;
7263;SDS011;3673;52.480;13.348;2022-09-17T04:01:38;9.05;;;2.33;;
7263;SDS011;3673;52.480;13.348;2022-09-17T04:04:05;12.43;;;1.95;;
7263;SDS011;3673;52.480;13.348;2022-09-17T04:06:32;8.93;;;1.83;;
7263;SDS011;3673;52.480;13.348;2022-09-17T04:08:59;8.80;;;2.22;;
7263;SDS011;3673;52.480;13.348;2022-09-17T04:11:28;7.28;;;2.10;;
7263;SDS011;3673;52.480;13.348;2022-09-17T04:13:56;10.43;;;1.85;;
7263;SDS011;3673;52.480;13.348;2022-09-17T04:16:23;7.57;;;1.75;;
7263;SDS011;3673;52.480;13.348;2022-09-17T04:18:50;9.05;;;1.80;;
7263;SDS011;3673;52.480;13.348;2022-09-17T04:21:16;8.85;;;2.05;;
7263;SDS011;3673;52.480;13.348;2022-09-17T04:23:43;7.10;;;1.67;;
7263;SDS011;3673;52.480;13.348;2022-09-17T04:26:10;7.25;;;2.08;;
7263;SDS011;3673;52.480;13.348;2022-09-17T04:28:37;4.32;;;1.48;;
7263;SDS011;3673;52.480;13.348;2022-09-17T04:31:05;5.53;;;1.60;;
7263;SDS011;3673;52.480;13.348;2022-09-17T04:33:32;6.20;;;2.17;;
7263;SDS011;3673;52.480;13.348;2022-09-17T04:35:58;7.93;;;2.28;;
7263;SDS011;3673;52.480;13.348;2022-09-17T04:38:25;5.45;;;1.60;;
7263;SDS011;3673;52.480;13.348;2022-09-17T04:40:52;5.45;;;1.48;;
7263;SDS011;3673;52.480;13.348;2022-09-17T04:43:21;9.98;;;2.10;;
7263;SDS011;3673;52.480;13.348;2022-09-17T04:45:48;4.97;;;1.55;;
7263;SDS011;3673;52.480;13.348;2022-09-17T04:48:16;6.97;;;1.73;;
7263;SDS011;3673;52.480;13.348;2022-09-17T04:50:43;9.65;;;1.80;;
7263;SDS011;3673;52.480;13.348;2022-09-17T04:53:10;7.90;;;1.90;;
7263;SDS011;3673;52.480;13.348;2022-09-17T04:55:37;8.50;;;2.03;;
7263;SDS011;3673;52.480;13.348;2022-09-17T04:58:04;5.15;;;2.20;;
7263;SDS011;3673;52.480;13.348;2022-09-17T05:00:30;9.13;;;1.88;;
7263;SDS011;3673;52.480;13.348;2022-09-17T05:02:57;6.40;;;2.00;;
7263;SDS011;3673;52.480;13.348;2022-09-17T05:05:25;6.72;;;1.65;;
7263;SDS011;3673;52.480;13.348;2022-09-17T05:07:52;5.65;;;2.05;;
7263;SDS011;3673;52.480;13.348;2022-09-17T05:10:19;9.35;;;2.53;;
7263;SDS011;3673;52.480;13.348;2022-09-17T05:12:48;7.22;;;2.47;;
7263;SDS011;3673;52.480;13.348;2022-09-17T05:15:15;10.80;;;3.83;;
7263;SDS011;3673;52.480;13.348;2022-09-17T05:17:43;7.97;;;2.20;;
7263;SDS011;3673;52.480;13.348;2022-09-17T05:20:10;11.82;;;2.40;;
7263;SDS011;3673;52.480;13.348;2022-09-17T05:22:43;11.15;;;6.60;;
7263;SDS011;3673;52.480;13.348;2022-09-17T05:25:11;8.18;;;2.60;;
7263;SDS011;3673;52.480;13.348;2022-09-17T05:27:40;10.68;;;4.82;;
7263;SDS011;3673;52.480;13.348;2022-09-17T05:30:07;5.30;;;1.77;;
7263;SDS011;3673;52.480;13.348;2022-09-17T05:32:37;10.60;;;2.10;;
7263;SDS011;3673;52.480;13.348;2022-09-17T05:35:05;11.23;;;2.42;;
7263;SDS011;3673;52.480;13.348;2022-09-17T05:37:33;6.57;;;2.00;;
7263;SDS011;3673;52.480;13.348;2022-09-17T05:40:01;8.95;;;2.03;;
7263;SDS011;3673;52.480;13.348;2022-09-17T05:42:28;10.10;;;2.60;;
7263;SDS011;3673;52.480;13.348;2022-09-17T05:44:55;4.63;;;1.88;;
7263;SDS011;3673;52.480;13.348;2022-09-17T05:47:22;6.70;;;1.88;;
7263;SDS011;3673;52.480;13.348;2022-09-17T05:49:50;8.23;;;2.22;;
7263;SDS011;3673;52.480;13.348;2022-09-17T05:52:17;5.07;;;2.05;;
7263;SDS011;3673;52.480;13.348;2022-09-17T05:54:44;6.78;;;2.50;;
7263;SDS011;3673;52.480;13.348;2022-09-17T05:57:12;8.63;;;2.05;;
7263;SDS011;3673;52.480;13.348;2022-09-17T05:59:40;11.93;;;3.15;;
7263;SDS011;3673;52.480;13.348;2022-09-17T06:02:08;9.18;;;3.15;;
7263;SDS011;3673;52.480;13.348;2022-09-17T06:04:38;12.02;;;3.13;;
7263;SDS011;3673;52.480;13.348;2022-09-17T06:07:05;10.45;;;2.65;;
7263;SDS011;3673;52.480;13.348;2022-09-17T06:09:33;17.85;;;2.90;;
7263;SDS011;3673;52.480;13.348;2022-09-17T06:12:00;11.45;;;4.30;;
7263;SDS011;3673;52.480;13.348;2022-09-17T06:14:29;16.33;;;3.83;;
7263;SDS011;3673;52.480;13.348;2022-09-17T06:16:56;12.27;;;3.72;;
7263;SDS011;3673;52.480;13.348;2022-09-17T06:19:23;11.73;;;3.42;;
7263;SDS011;3673;52.480;13.348;2022-09-17T06:21:50;13.05;;;4.40;;
7263;SDS011;3673;52.480;13.348;2022-09-17T06:24:17;19.85;;;3.20;;
7263;SDS011;3673;52.480;13.348;2022-09-17T06:26:44;15.32;;;3.95;;
7263;SDS011;3673;52.480;13.348;2022-09-17T06:29:10;10.45;;;4.32;;
7263;SDS011;3673;52.480;13.348;2022-09-17T06:31:40;13.38;;;3.35;;
7263;SDS011;3673;52.480;13.348;2022-09-17T06:34:08;11.45;;;3.47;;
7263;SDS011;3673;52.480;13.348;2022-09-17T06:36:35;16.85;;;3.53;;
7263;SDS011;3673;52.480;13.348;2022-09-17T06:39:02;19.00;;;3.25;;
7263;SDS011;3673;52.480;13.348;2022-09-17T06:41:29;19.33;;;3.90;;
7263;SDS011;3673;52.480;13.348;2022-09-17T06:43:57;18.33;;;3.50;;
7263;SDS011;3673;52.480;13.348;2022-09-17T06:46:24;12.80;;;3.60;;
7263;SDS011;3673;52.480;13.348;2022-09-17T06:48:52;16.63;;;5.07;;
7263;SDS011;3673;52.480;13.348;2022-09-17T06:51:19;12.20;;;3.10;;
7263;SDS011;3673;52.480;13.348;2022-09-17T06:53:46;16.08;;;3.92;;
7263;SDS011;3673;52.480;13.348;2022-09-17T06:56:13;14.15;;;4.03;;
7263;SDS011;3673;52.480;13.348;2022-09-17T06:58:41;16.48;;;3.25;;
7263;SDS011;3673;52.480;13.348;2022-09-17T07:01:08;19.33;;;3.92;;
7263;SDS011;3673;52.480;13.348;2022-09-17T07:03:37;13.25;;;2.63;;
7263;SDS011;3673;52.480;13.348;2022-09-17T07:06:08;18.20;;;4.32;;
7263;SDS011;3673;52.480;13.348;2022-09-17T07:08:36;15.77;;;3.05;;
7263;SDS011;3673;52.480;13.348;2022-09-17T07:11:04;14.23;;;3.53;;
7263;SDS011;3673;52.480;13.348;2022-09-17T07:13:32;15.18;;;2.88;;
7263;SDS011;3673;52.480;13.348;2022-09-17T07:15:59;14.25;;;3.85;;
7263;SDS011;3673;52.480;13.348;2022-09-17T07:18:28;12.93;;;2.55;;
7263;SDS011;3673;52.480;13.348;2022-09-17T07:20:56;15.45;;;3.15;;
7263;SDS011;3673;52.480;13.348;2022-09-17T07:23:27;16.65;;;3.45;;
7263;SDS011;3673;52.480;13.348;2022-09-17T07:25:55;18.83;;;3.33;;
7263;SDS011;3673;52.480;13.348;2022-09-17T07:28:24;8.38;;;2.00;;
7263;SDS011;3673;52.480;13.348;2022-09-17T07:30:52;11.55;;;2.72;;
7263;SDS011;3673;52.480;13.348;2022-09-17T07:33:21;18.80;;;4.90;;
7263;SDS011;3673;52.480;13.348;2022-09-17T07:35:52;20.98;;;3.80;;
7263;SDS011;3673;52.480;13.348;2022-09-17T07:38:21;10.85;;;2.65;;
7263;SDS011;3673;52.480;13.348;2022-09-17T07:40:55;19.27;;;3.30;;
7263;SDS011;3673;52.480;13.348;2022-09-17T07:43:23;9.52;;;2.28;;
7263;SDS011;3673;52.480;13.348;2022-09-17T07:45:51;15.13;;;2.38;;
7263;SDS011;3673;52.480;13.348;2022-09-17T07:48:18;9.52;;;2.20;;
7263;SDS011;3673;52.480;13.348;2022-09-17T07:50:46;19.67;;;4.40;;
7263;SDS011;3673;52.480;13.348;2022-09-17T07:53:13;16.45;;;2.72;;
7263;SDS011;3673;52.480;13.348;2022-09-17T07:55:41;10.98;;;2.13;;
7263;SDS011;3673;52.480;13.348;2022-09-17T07:58:09;11.48;;;2.35;;
7263;SDS011;3673;52.480;13.348;2022-09-17T08:00:36;11.02;;;3.00;;
7263;SDS011;3673;52.480;13.348;2022-09-17T08:03:03;9.75;;;2.45;;
7263;SDS011;3673;52.480;13.348;2022-09-17T08:05:30;16.58;;;2.00;;
7263;SDS011;3673;52.480;13.348;2022-09-17T08:07:57;14.95;;;2.92;;
7263;SDS011;3673;52.480;13.348;2022-09-17T08:10:24;14.13;;;2.55;;
7263;SDS011;3673;52.480;13.348;2022-09-17T08:12:53;13.18;;;2.10;;
7263;SDS011;3673;52.480;13.348;2022-09-17T08:15:24;16.88;;;3.17;;
7263;SDS011;3673;52.480;13.348;2022-09-17T08:17:52;18.30;;;2.83;;
7263;SDS011;3673;52.480;13.348;2022-09-17T08:20:18;11.20;;;2.78;;
7263;SDS011;3673;52.480;13.348;2022-09-17T08:22:48;13.40;;;2.55;;
7263;SDS011;3673;52.480;13.348;2022-09-17T08:25:14;7.60;;;2.22;;
7263;SDS011;3673;52.480;13.348;2022-09-17T08:27:42;15.57;;;2.28;;
7263;SDS011;3673;52.480;13.348;2022-09-17T08:30:09;13.38;;;2.30;;
7263;SDS011;3673;52.480;13.348;2022-09-17T08:32:37;12.82;;;3.33;;
7263;SDS011;3673;52.480;13.348;2022-09-17T08:35:05;8.23;;;2.17;;
7263;SDS011;3673;52.480;13.348;2022-09-17T08:37:32;8.75;;;1.95;;
7263;SDS011;3673;52.480;13.348;2022-09-17T08:40:01;10.57;;;2.17;;
7263;SDS011;3673;52.480;13.348;2022-09-17T08:42:29;10.27;;;2.72;;
7263;SDS011;3673;52.480;13.348;2022-09-17T08:45:04;13.20;;;3.03;;
7263;SDS011;3673;52.480;13.348;2022-09-17T08:47:39;10.20;;;2.72;;
7263;SDS011;3673;52.480;13.348;2022-09-17T08:50:11;13.45;;;2.60;;
7263;SDS011;3673;52.480;13.348;2022-09-17T08:52:45;11.45;;;2.72;;
7263;SDS011;3673;52.480;13.348;2022-09-17T08:55:39;9.55;;;2.20;;
7263;SDS011;3673;52.480;13.348;2022-09-17T08:58:20;12.98;;;2.20;;
7263;SDS011;3673;52.480;13.348;2022-09-17T09:01:06;6.93;;;2.40;;
7263;SDS011;3673;52.480;13.348;2022-09-17T09:03:56;12.85;;;2.20;;
7263;SDS011;3673;52.480;13.348;2022-09-17T09:06:41;12.00;;;2.35;;
7263;SDS011;3673;52.480;13.348;2022-09-17T09:09:13;8.48;;;2.15;;
7263;SDS011;3673;52.480;13.348;2022-09-17T09:11:42;8.25;;;1.88;;
7263;SDS011;3673;52.480;13.348;2022-09-17T09:14:12;7.85;;;2.15;;
7263;SDS011;3673;52.480;13.348;2022-09-17T09:16:46;15.80;;;2.72;;
7263;SDS011;3673;52.480;13.348;2022-09-17T09:19:20;17.52;;;3.22;;
7263;SDS011;3673;52.480;13.348;2022-09-17T09:21:54;9.10;;;1.98;;
7263;SDS011;3673;52.480;13.348;2022-09-17T09:24:32;10.30;;;2.78;;
7263;SDS011;3673;52.480;13.348;2022-09-17T09:29:43;7.35;;;2.03;;
7263;SDS011;3673;52.480;13.348;2022-09-17T09:32:24;11.90;;;2.42;;
7263;SDS011;3673;52.480;13.348;2022-09-17T09:35:13;11.50;;;2.53;;
7263;SDS011;3673;52.480;13.348;2022-09-17T09:40:21;8.05;;;2.08;;
7263;SDS011;3673;52.480;13.348;2022-09-17T09:42:59;10.40;;;2.05;;
7263;SDS011;3673;52.480;13.348;2022-09-17T09:45:33;12.40;;;2.40;;
7263;SDS011;3673;52.480;13.348;2022-09-17T09:48:15;12.10;;;2.78;;
7263;SDS011;3673;52.480;13.348;2022-09-17T09:50:57;15.80;;;2.63;;
7263;SDS011;3673;52.480;13.348;2022-09-17T09:53:44;8.02;;;2.60;;
7263;SDS011;3673;52.480;13.348;2022-09-17T09:56:41;8.18;;;2.50;;
7263;SDS011;3673;52.480;13.348;2022-09-17T09:59:20;7.35;;;1.67;;
7263;SDS011;3673;52.480;13.348;2022-09-17T10:01:46;8.73;;;1.92;;
7263;SDS011;3673;52.480;13.348;2022-09-17T10:04:14;10.73;;;1.85;;
7263;SDS011;3673;52.480;13.348;2022-09-17T10:06:46;8.18;;;2.55;;
7263;SDS011;3673;52.480;13.348;2022-09-17T10:09:15;9.52;;;2.67;;
7263;SDS011;3673;52.480;13.348;2022-09-17T10:11:57;8.93;;;2.25;;
7263;SDS011;3673;52.480;13.348;2022-09-17T10:14:28;7.80;;;1.70;;
7263;SDS011;3673;52.480;13.348;2022-09-17T10:17:15;9.40;;;1.67;;
7263;SDS011;3673;52.480;13.348;2022-09-17T10:19:45;7.55;;;1.83;;
7263;SDS011;3673;52.480;13.348;2022-09-17T10:22:30;12.80;;;2.10;;
7263;SDS011;3673;52.480;13.348;2022-09-17T10:24:59;7.82;;;2.38;;
7263;SDS011;3673;52.480;13.348;2022-09-17T10:27:27;9.63;;;2.25;;
7263;SDS011;3673;52.480;13.348;2022-09-17T10:30:01;9.85;;;1.70;;
7263;SDS011;3673;52.480;13.348;2022-09-17T10:32:40;7.10;;;1.90;;
7263;SDS011;3673;52.480;13.348;2022-09-17T10:35:24;9.05;;;1.60;;
7263;SDS011;3673;52.480;13.348;2022-09-17T10:37:53;6.95;;;2.40;;
7263;SDS011;3673;52.480;13.348;2022-09-17T10:40:24;9.25;;;2.35;;
7263;SDS011;3673;52.480;13.348;2022-09-17T10:45:54;8.68;;;2.10;;
7263;SDS011;3673;52.480;13.348;2022-09-17T10:48:25;13.82;;;2.88;;
7263;SDS011;3673;52.480;13.348;2022-09-17T10:50:56;9.02;;;2.22;;
7263;SDS011;3673;52.480;13.348;2022-09-17T10:53:26;10.27;;;2.50;;
7263;SDS011;3673;52.480;13.348;2022-09-17T10:55:57;9.13;;;2.85;;
7263;SDS011;3673;52.480;13.348;2022-09-17T10:58:38;7.63;;;1.45;;
7263;SDS011;3673;52.480;13.348;2022-09-17T11:01:21;9.13;;;1.90;;
7263;SDS011;3673;52.480;13.348;2022-09-17T11:04:17;12.70;;;2.97;;
7263;SDS011;3673;52.480;13.348;2022-09-17T11:07:00;11.68;;;1.90;;
7263;SDS011;3673;52.480;13.348;2022-09-17T11:10:02;11.80;;;2.17;;
7263;SDS011;3673;52.480;13.348;2022-09-17T11:12:50;11.35;;;1.98;;
7263;SDS011;3673;52.480;13.348;2022-09-17T11:15:35;12.10;;;2.50;;
7263;SDS011;3673;52.480;13.348;2022-09-17T11:18:21;10.15;;;1.70;;
7263;SDS011;3673;52.480;13.348;2022-09-17T11:21:07;7.25;;;1.88;;
7263;SDS011;3673;52.480;13.348;2022-09-17T11:27:17;3.92;;;1.30;;
7263;SDS011;3673;52.480;13.348;2022-09-17T11:30:13;7.18;;;1.65;;
7263;SDS011;3673;52.480;13.348;2022-09-17T11:35:46;5.10;;;1.58;;
7263;SDS011;3673;52.480;13.348;2022-09-17T11:38:16;4.90;;;1.20;;
7263;SDS011;3673;52.480;13.348;2022-09-17T11:40:51;3.80;;;1.20;;
7263;SDS011;3673;52.480;13.348;2022-09-17T11:43:28;8.02;;;1.65;;
7263;SDS011;3673;52.480;13.348;2022-09-17T11:46:00;6.95;;;1.90;;
7263;SDS011;3673;52.480;13.348;2022-09-17T11:48:34;7.75;;;1.60;;
7263;SDS011;3673;52.480;13.348;2022-09-17T11:51:13;4.35;;;1.88;;
7263;SDS011;3673;52.480;13.348;2022-09-17T11:53:49;7.18;;;1.73;;
7263;SDS011;3673;52.480;13.348;2022-09-17T11:56:22;6.90;;;1.60;;
7263;SDS011;3673;52.480;13.348;2022-09-17T11:58:57;4.30;;;1.38;;
7263;SDS011;3673;52.480;13.348;2022-09-17T12:01:30;3.83;;;1.60;;
7263;SDS011;3673;52.480;13.348;2022-09-17T12:04:08;4.93;;;1.30;;
7263;SDS011;3673;52.480;13.348;2022-09-17T12:06:58;4.40;;;1.40;;
7263;SDS011;3673;52.480;13.348;2022-09-17T12:09:36;3.88;;;1.20;;
7263;SDS011;3673;52.480;13.348;2022-09-17T12:12:09;2.95;;;0.95;;
7263;SDS011;3673;52.480;13.348;2022-09-17T12:14:43;4.95;;;1.85;;
7263;SDS011;3673;52.480;13.348;2022-09-17T12:17:17;8.90;;;1.48;;
7263;SDS011;3673;52.480;13.348;2022-09-17T12:19:50;11.82;;;1.77;;
7263;SDS011;3673;52.480;13.348;2022-09-17T12:22:22;8.98;;;1.55;;
7263;SDS011;3673;52.480;13.348;2022-09-17T12:24:52;7.00;;;1.40;;
7263;SDS011;3673;52.480;13.348;2022-09-17T12:27:23;3.97;;;1.10;;
7263;SDS011;3673;52.480;13.348;2022-09-17T12:30:11;4.95;;;1.35;;
7263;SDS011;3673;52.480;13.348;2022-09-17T12:32:45;7.50;;;1.40;;
7263;SDS011;3673;52.480;13.348;2022-09-17T12:38:27;7.55;;;2.20;;
7263;SDS011;3673;52.480;13.348;2022-09-17T12:41:18;5.43;;;1.35;;
7263;SDS011;3673;52.480;13.348;2022-09-17T12:43:54;3.70;;;1.25;;
7263;SDS011;3673;52.480;13.348;2022-09-17T12:46:41;3.78;;;1.20;;
7263;SDS011;3673;52.480;13.348;2022-09-17T12:49:31;8.20;;;1.27;;
7263;SDS011;3673;52.480;13.348;2022-09-17T12:52:20;9.93;;;1.67;;
7263;SDS011;3673;52.480;13.348;2022-09-17T12:55:16;5.78;;;1.02;;
7263;SDS011;3673;52.480;13.348;2022-09-17T12:57:56;4.45;;;1.42;;
7263;SDS011;3673;52.480;13.348;2022-09-17T13:00:34;5.30;;;1.27;;
7263;SDS011;3673;52.480;13.348;2022-09-17T13:03:07;6.45;;;1.35;;
7263;SDS011;3673;52.480;13.348;2022-09-17T13:06:02;2.08;;;0.88;;
7263;SDS011;3673;52.480;13.348;2022-09-17T13:09:11;4.22;;;1.05;;
7263;SDS011;3673;52.480;13.348;2022-09-17T13:12:14;2.30;;;0.75;;
7263;SDS011;3673;52.480;13.348;2022-09-17T13:14:55;5.65;;;1.35;;
7263;SDS011;3673;52.480;13.348;2022-09-17T13:17:32;6.22;;;1.50;;
7263;SDS011;3673;52.480;13.348;2022-09-17T13:20:12;3.92;;;1.40;;
7263;SDS011;3673;52.480;13.348;2022-09-17T13:22:46;2.42;;;1.10;;
7263;SDS011;3673;52.480;13.348;2022-09-17T13:25:16;4.65;;;1.23;;
7263;SDS011;3673;52.480;13.348;2022-09-17T13:27:46;5.57;;;2.25;;
7263;SDS011;3673;52.480;13.348;2022-09-17T13:30:16;1.92;;;0.88;;
7263;SDS011;3673;52.480;13.348;2022-09-17T13:32:45;4.07;;;1.73;;
7263;SDS011;3673;52.480;13.348;2022-09-17T13:38:17;1.98;;;0.77;;
7263;SDS011;3673;52.480;13.348;2022-09-17T13:40:46;6.22;;;2.00;;
7263;SDS011;3673;52.480;13.348;2022-09-17T13:43:14;4.20;;;1.50;;
7263;SDS011;3673;52.480;13.348;2022-09-17T13:46:07;4.63;;;1.15;;
7263;SDS011;3673;52.480;13.348;2022-09-17T13:48:48;3.67;;;1.02;;
7263;SDS011;3673;52.480;13.348;2022-09-17T13:54:18;8.15;;;1.40;;
7263;SDS011;3673;52.480;13.348;2022-09-17T13:56:50;3.45;;;1.35;;
7263;SDS011;3673;52.480;13.348;2022-09-17T13:59:50;4.10;;;1.40;;
7263;SDS011;3673;52.480;13.348;2022-09-17T14:02:27;9.35;;;1.95;;
7263;SDS011;3673;52.480;13.348;2022-09-17T14:05:18;3.92;;;1.25;;
7263;SDS011;3673;52.480;13.348;2022-09-17T14:08:08;6.93;;;1.73;;
7263;SDS011;3673;52.480;13.348;2022-09-17T14:10:40;4.75;;;1.70;;
7263;SDS011;3673;52.480;13.348;2022-09-17T14:13:25;5.43;;;1.25;;
7263;SDS011;3673;52.480;13.348;2022-09-17T14:19:24;7.43;;;1.75;;
7263;SDS011;3673;52.480;13.348;2022-09-17T14:22:11;6.50;;;1.33;;
7263;SDS011;3673;52.480;13.348;2022-09-17T14:24:46;5.65;;;1.33;;
7263;SDS011;3673;52.480;13.348;2022-09-17T14:27:18;6.97;;;1.77;;
7263;SDS011;3673;52.480;13.348;2022-09-17T14:30:09;7.80;;;1.45;;
7263;SDS011;3673;52.480;13.348;2022-09-17T14:32:40;4.22;;;1.23;;
7263;SDS011;3673;52.480;13.348;2022-09-17T14:35:14;6.28;;;1.30;;
7263;SDS011;3673;52.480;13.348;2022-09-17T14:37:47;6.38;;;1.73;;
7263;SDS011;3673;52.480;13.348;2022-09-17T14:40:22;7.43;;;1.17;;
7263;SDS011;3673;52.480;13.348;2022-09-17T14:42:50;2.97;;;1.30;;
7263;SDS011;3673;52.480;13.348;2022-09-17T14:45:21;5.35;;;1.20;;
7263;SDS011;3673;52.480;13.348;2022-09-17T14:50:52;6.40;;;1.15;;
7263;SDS011;3673;52.480;13.348;2022-09-17T14:53:35;2.67;;;0.85;;
7263;SDS011;3673;52.480;13.348;2022-09-17T14:56:04;4.47;;;1.42;;
7263;SDS011;3673;52.480;13.348;2022-09-17T14:58:35;3.67;;;1.48;;
7263;SDS011;3673;52.480;13.348;2022-09-17T15:01:12;5.07;;;0.98;;
7263;SDS011;3673;52.480;13.348;2022-09-17T15:03:47;2.90;;;0.95;;
7263;SDS011;3673;52.480;13.348;2022-09-17T15:06:18;1.15;;;0.60;;
7263;SDS011;3673;52.480;13.348;2022-09-17T15:08:46;1.67;;;0.70;;
7263;SDS011;3673;52.480;13.348;2022-09-17T15:11:15;2.85;;;0.93;;
7263;SDS011;3673;52.480;13.348;2022-09-17T15:13:43;0.82;;;0.45;;
7263;SDS011;3673;52.480;13.348;2022-09-17T15:16:16;2.45;;;0.45;;
7263;SDS011;3673;52.480;13.348;2022-09-17T15:18:50;0.75;;;0.50;;
7263;SDS011;3673;52.480;13.348;2022-09-17T15:21:20;1.75;;;0.85;;
7263;SDS011;3673;52.480;13.348;2022-09-17T15:23:57;5.93;;;3.10;;
7263;SDS011;3673;52.480;13.348;2022-09-17T15:26:31;6.68;;;1.05;;
7263;SDS011;3673;52.480;13.348;2022-09-17T15:29:03;1.77;;;0.65;;
7263;SDS011;3673;52.480;13.348;2022-09-17T15:31:30;1.52;;;0.88;;
7263;SDS011;3673;52.480;13.348;2022-09-17T15:33:58;1.42;;;0.38;;
7263;SDS011;3673;52.480;13.348;2022-09-17T15:36:25;3.80;;;0.50;;
7263;SDS011;3673;52.480;13.348;2022-09-17T15:38:56;2.17;;;0.32;;
7263;SDS011;3673;52.480;13.348;2022-09-17T15:41:26;2.70;;;0.60;;
7263;SDS011;3673;52.480;13.348;2022-09-17T15:44:16;0.77;;;0.60;;
7263;SDS011;3673;52.480;13.348;2022-09-17T15:46:48;0.93;;;0.50;;
7263;SDS011;3673;52.480;13.348;2022-09-17T15:49:26;1.15;;;0.60;;
7263;SDS011;3673;52.480;13.348;2022-09-17T15:54:54;0.93;;;0.50;;
7263;SDS011;3673;52.480;13.348;2022-09-17T15:57:22;1.33;;;0.43;;
7263;SDS011;3673;52.480;13.348;2022-09-17T15:59:51;4.32;;;0.60;;
7263;SDS011;3673;52.480;13.348;2022-09-17T16:02:25;3.95;;;0.80;;
7263;SDS011;3673;52.480;13.348;2022-09-17T16:05:19;3.75;;;1.00;;
7263;SDS011;3673;52.480;13.348;2022-09-17T16:08:21;3.13;;;0.98;;
7263;SDS011;3673;52.480;13.348;2022-09-17T16:10:50;2.00;;;0.73;;